< < Back
Terminal Aerodrome Forecast


Current Version              Previous Versions:   1  2  3  4  5  6  7  8  9  

Terminal Aerodrome Forecast

328
FTUS42 KJAX 310000 AAA
TAFJAX
TAF AMD
KJAX 310009Z 3100/3124 05005KT P6SM VCSH BKN018 OVC040
      TEMPO 3101/3105 SCT018 OVC040
     FM310500 35006KT P6SM SCT020 BKN060
     FM311500 33008KT P6SM FEW040=

Latest METAR

724
SAUS80 KWBC 311300
MTRJAX
METAR KJAX 311256Z 34004KT 10SM FEW040 FEW200 16/13 A2988 RMK AO2 SLP119
T01560133


USA.gov is the U.S. government's official web portal to all federal, state and local government web resources and services.